createdAt,value
2017-07-12T00:00:11.979Z,18.20
2017-07-12T00:04:58.622Z,18.10
2017-07-12T00:09:45.301Z,18.20
2017-07-12T00:14:32.168Z,18.30
2017-07-12T00:19:18.779Z,18.30
2017-07-12T00:24:05.877Z,18.00
2017-07-12T00:28:52.519Z,18.00
2017-07-12T00:33:39.133Z,17.80
2017-07-12T00:38:25.799Z,17.90
2017-07-12T00:43:12.687Z,17.80
2017-07-12T00:47:59.325Z,17.80
2017-07-12T00:52:45.962Z,17.80
2017-07-12T00:57:33.328Z,17.60
2017-07-12T01:02:20.308Z,17.50
2017-07-12T01:07:06.913Z,17.70
2017-07-12T01:11:53.542Z,17.60
2017-07-12T01:16:40.484Z,17.80
2017-07-12T01:21:27.153Z,17.80
2017-07-12T01:26:13.784Z,17.80
2017-07-12T01:31:00.442Z,17.70
2017-07-12T01:35:47.064Z,17.80
2017-07-12T01:40:33.668Z,17.70
2017-07-12T01:45:20.399Z,17.70
2017-07-12T01:50:07.002Z,17.80
2017-07-12T01:54:53.966Z,17.90
2017-07-12T01:59:41.327Z,17.80
2017-07-12T02:04:27.927Z,17.80
2017-07-12T02:09:15.310Z,17.50
2017-07-12T02:14:01.926Z,17.50
2017-07-12T02:18:48.511Z,17.40
2017-07-12T02:23:35.867Z,17.10
2017-07-12T02:28:22.831Z,17.10
2017-07-12T02:33:09.445Z,17.10
2017-07-12T02:37:56.091Z,17.20
2017-07-12T02:42:42.835Z,17.30
2017-07-12T02:47:30.559Z,17.40
2017-07-12T02:52:17.149Z,17.40
2017-07-12T02:57:03.830Z,17.30
2017-07-12T03:01:50.493Z,17.50
2017-07-12T03:06:37.249Z,17.40
2017-07-12T03:11:25.077Z,17.60
2017-07-12T03:16:11.685Z,17.50
2017-07-12T03:20:58.317Z,17.60
2017-07-12T03:25:45.196Z,17.50
2017-07-12T03:30:31.792Z,17.40
2017-07-12T03:35:19.404Z,17.60
2017-07-12T03:40:06.151Z,17.60
2017-07-12T03:44:53.159Z,17.50
2017-07-12T03:49:40.001Z,17.30
2017-07-12T03:54:26.763Z,17.30
2017-07-12T03:59:13.357Z,17.30
2017-07-12T04:04:01.367Z,17.50
2017-07-12T04:08:48.000Z,17.40
2017-07-12T04:13:34.605Z,17.50
2017-07-12T04:18:21.224Z,17.50
2017-07-12T04:23:07.916Z,17.50
2017-07-12T04:27:54.908Z,17.40
2017-07-12T04:32:42.274Z,17.50
2017-07-12T04:37:28.896Z,17.50
2017-07-12T04:42:15.549Z,17.50
2017-07-12T04:47:02.184Z,17.70
2017-07-12T04:51:49.209Z,17.60
2017-07-12T04:56:36.115Z,17.60
2017-07-12T05:01:22.795Z,17.70
2017-07-12T05:06:10.157Z,17.90
2017-07-12T05:10:56.765Z,17.90
2017-07-12T05:15:43.370Z,17.90
2017-07-12T05:20:31.089Z,17.90
2017-07-12T05:25:17.720Z,17.90
2017-07-12T05:30:04.370Z,18.00
2017-07-12T05:34:51.067Z,18.10
2017-07-12T05:39:38.472Z,18.20
2017-07-12T05:44:25.083Z,18.20
2017-07-12T05:49:11.759Z,18.20
2017-07-12T05:53:59.154Z,18.50
2017-07-12T05:58:45.759Z,18.40
2017-07-12T06:03:32.696Z,18.70
2017-07-12T06:08:19.271Z,18.90
2017-07-12T06:13:05.884Z,19.00
2017-07-12T06:17:52.556Z,19.10
2017-07-12T06:22:39.531Z,19.30
2017-07-12T06:27:26.878Z,19.50
2017-07-12T06:32:13.521Z,19.40
2017-07-12T06:37:00.172Z,19.50
2017-07-12T06:41:46.827Z,19.50
2017-07-12T06:46:33.455Z,19.50
2017-07-12T06:51:20.054Z,19.70
2017-07-12T06:56:07.441Z,19.70
2017-07-12T07:00:54.123Z,19.70
2017-07-12T07:05:41.849Z,19.70
2017-07-12T07:10:28.516Z,19.70
2017-07-12T07:15:15.152Z,19.80
2017-07-12T07:20:01.779Z,19.90
2017-07-12T07:24:48.414Z,20.00
2017-07-12T07:29:35.037Z,20.10
2017-07-12T07:34:22.057Z,20.20
2017-07-12T07:39:08.662Z,20.20
2017-07-12T07:43:55.305Z,20.30
2017-07-12T07:48:41.938Z,20.70
2017-07-12T07:53:28.561Z,20.80
2017-07-12T07:58:15.490Z,21.20
2017-07-12T08:03:02.203Z,21.60
2017-07-12T08:07:48.897Z,21.40
2017-07-12T08:12:35.544Z,21.60
2017-07-12T08:17:23.272Z,22.30
2017-07-12T08:22:10.033Z,22.30
2017-07-12T08:26:57.451Z,22.80
2017-07-12T08:31:44.117Z,22.70
2017-07-12T08:36:30.730Z,22.60
2017-07-12T08:41:17.811Z,22.40
2017-07-12T08:46:04.487Z,22.40
2017-07-12T08:50:51.164Z,22.30
2017-07-12T08:55:37.788Z,22.40
2017-07-12T09:00:24.511Z,22.40
2017-07-12T09:05:11.145Z,22.20
2017-07-12T09:09:57.907Z,22.20
2017-07-12T09:14:44.573Z,22.30
2017-07-12T09:19:31.177Z,22.30
2017-07-12T09:33:51.243Z,22.00
2017-07-12T09:38:37.901Z,21.90
2017-07-12T09:43:24.545Z,22.00
2017-07-12T09:48:11.229Z,22.00
2017-07-12T09:52:58.882Z,21.90
2017-07-12T09:57:46.265Z,22.10
2017-07-12T10:02:32.888Z,22.10
2017-07-12T10:07:19.487Z,22.40
2017-07-12T10:12:06.145Z,22.90
2017-07-12T10:16:53.273Z,23.40
2017-07-12T10:21:39.891Z,24.10
2017-07-12T10:26:26.566Z,24.10
2017-07-12T10:31:13.187Z,24.60
2017-07-12T10:35:59.877Z,24.70
2017-07-12T10:40:46.525Z,24.90
2017-07-12T10:45:33.508Z,24.80
2017-07-12T10:50:20.216Z,24.90
2017-07-12T10:55:06.859Z,25.30
2017-07-12T10:59:53.438Z,25.70
2017-07-12T11:04:40.047Z,25.40
2017-07-12T11:09:26.932Z,25.20
2017-07-12T11:14:13.604Z,24.80
2017-07-12T11:19:00.330Z,24.80
2017-07-12T11:23:46.999Z,25.10
2017-07-12T11:28:34.396Z,25.50
2017-07-12T11:33:21.431Z,25.50
2017-07-12T11:38:08.089Z,26.20
2017-07-12T11:42:54.716Z,26.20
2017-07-12T11:47:41.359Z,26.10
2017-07-12T11:52:28.014Z,26.00
2017-07-12T11:57:14.714Z,26.50
2017-07-12T12:02:01.788Z,28.00
2017-07-12T12:06:48.405Z,28.70
2017-07-12T12:11:35.138Z,28.80
2017-07-12T12:16:22.552Z,26.90
2017-07-12T12:21:09.450Z,26.90
2017-07-12T12:25:56.412Z,26.90
2017-07-12T12:30:43.078Z,26.60
2017-07-12T12:35:29.704Z,27.20
2017-07-12T12:40:16.336Z,26.90
2017-07-12T12:45:02.954Z,26.30
2017-07-12T12:49:49.907Z,25.90
2017-07-12T12:54:36.494Z,25.40
2017-07-12T12:59:23.205Z,23.80
2017-07-12T13:04:16.855Z,22.70
2017-07-12T13:09:03.632Z,22.00
2017-07-12T13:13:50.258Z,22.00
2017-07-12T13:18:37.000Z,22.10
2017-07-12T13:23:23.640Z,22.10
2017-07-12T13:28:10.555Z,22.30
2017-07-12T13:32:57.162Z,22.60
2017-07-12T13:37:43.808Z,22.80
2017-07-12T13:42:30.453Z,23.20
2017-07-12T13:47:17.388Z,23.40
2017-07-12T13:52:04.104Z,23.40
2017-07-12T13:56:51.006Z,23.60
2017-07-12T14:01:37.705Z,23.70
2017-07-12T14:06:24.311Z,23.80
2017-07-12T14:11:11.164Z,23.90
2017-07-12T14:15:58.104Z,23.90
2017-07-12T14:20:44.734Z,24.00
2017-07-12T14:25:31.414Z,24.00
2017-07-12T14:30:18.048Z,24.00
2017-07-12T14:35:04.624Z,24.10
2017-07-12T14:39:51.570Z,24.30
2017-07-12T14:44:38.154Z,24.50
2017-07-12T14:49:24.755Z,24.70
2017-07-12T14:54:12.131Z,24.90
2017-07-12T14:58:58.744Z,24.90
2017-07-12T15:03:45.367Z,25.10
2017-07-12T15:08:32.001Z,25.20
2017-07-12T15:13:18.624Z,25.40
2017-07-12T15:18:05.258Z,25.70
2017-07-12T15:22:51.923Z,25.90
2017-07-12T15:27:39.315Z,26.20
2017-07-12T15:32:26.038Z,26.20
2017-07-12T15:37:12.720Z,26.20
2017-07-12T15:41:59.460Z,26.10
2017-07-12T15:46:46.095Z,26.20
2017-07-12T15:51:32.845Z,26.20
2017-07-12T15:56:19.753Z,26.00
2017-07-12T16:01:06.465Z,25.80
2017-07-12T16:05:53.081Z,26.10
2017-07-12T16:10:44.265Z,26.10
2017-07-12T16:15:31.947Z,26.00
2017-07-12T16:20:20.039Z,25.70
2017-07-12T16:25:06.674Z,25.60
2017-07-12T16:29:54.216Z,25.50
2017-07-12T16:34:40.922Z,25.50
2017-07-12T16:39:27.642Z,25.30
2017-07-12T16:44:14.317Z,25.10
2017-07-12T16:49:01.012Z,25.00
2017-07-12T16:53:47.651Z,25.00
2017-07-12T16:58:34.313Z,24.90
2017-07-12T17:03:21.172Z,24.70
2017-07-12T17:08:07.804Z,24.50
2017-07-12T17:12:54.457Z,24.50
2017-07-12T17:17:41.408Z,24.50
2017-07-12T17:22:28.023Z,24.40
2017-07-12T17:27:15.078Z,24.40
2017-07-12T17:32:01.724Z,24.50
2017-07-12T17:36:48.409Z,24.70
2017-07-12T17:41:35.184Z,24.60
2017-07-12T17:46:21.824Z,24.30
2017-07-12T17:51:08.805Z,24.20
2017-07-12T17:55:55.741Z,24.00
2017-07-12T18:00:42.331Z,24.10
2017-07-12T18:05:28.956Z,24.10
2017-07-12T18:10:16.371Z,23.70
2017-07-12T18:15:03.206Z,23.70
2017-07-12T18:19:50.230Z,23.20
2017-07-12T18:24:36.894Z,22.40
2017-07-12T18:29:23.546Z,22.00
2017-07-12T18:34:10.230Z,21.80
2017-07-12T18:38:56.908Z,21.80
2017-07-12T18:43:43.781Z,21.80
2017-07-12T18:48:30.761Z,21.60
2017-07-12T18:53:17.381Z,21.50
2017-07-12T18:58:04.049Z,21.50
2017-07-12T19:02:50.707Z,21.60
2017-07-12T19:07:37.707Z,21.50
2017-07-12T19:12:24.441Z,21.50
2017-07-12T19:17:11.203Z,21.60
2017-07-12T19:21:58.238Z,21.60
2017-07-12T19:26:44.912Z,21.60
2017-07-12T19:31:31.646Z,21.60
2017-07-12T19:36:18.375Z,21.40
2017-07-12T19:41:05.079Z,21.10
2017-07-12T19:45:51.864Z,21.00
2017-07-12T19:50:38.518Z,20.60
2017-07-12T19:55:25.272Z,19.80
2017-07-12T20:00:11.964Z,19.40
2017-07-12T20:04:58.648Z,19.10
2017-07-12T20:09:45.339Z,19.00
2017-07-12T20:14:32.281Z,18.90
2017-07-12T20:19:18.954Z,19.00
2017-07-12T20:24:05.626Z,19.00
2017-07-12T20:28:52.262Z,19.00
2017-07-12T20:33:39.737Z,19.10
2017-07-12T20:38:26.590Z,19.00
2017-07-12T20:43:13.216Z,19.10
2017-07-12T20:47:59.889Z,19.10
2017-07-12T20:52:46.542Z,19.10
2017-07-12T20:57:33.251Z,19.00
2017-07-12T21:02:20.160Z,19.10
2017-07-12T21:07:06.747Z,19.10
2017-07-12T21:11:54.127Z,19.10
2017-07-12T21:16:40.919Z,19.10
2017-07-12T21:21:28.635Z,19.20
2017-07-12T21:26:15.336Z,19.10
2017-07-12T21:31:01.996Z,19.20
2017-07-12T21:35:48.888Z,19.20
2017-07-12T21:40:35.504Z,19.20
2017-07-12T21:45:22.172Z,19.20
2017-07-12T21:50:09.564Z,19.20
2017-07-12T21:55:20.480Z,19.10
2017-07-12T22:00:31.799Z,19.20
2017-07-12T22:05:43.800Z,19.10
2017-07-12T22:10:54.878Z,19.10
2017-07-12T22:16:06.192Z,19.00
2017-07-12T22:21:18.520Z,19.00
2017-07-12T22:26:29.888Z,18.90
2017-07-12T22:31:41.386Z,18.60
2017-07-12T22:36:52.808Z,18.40
2017-07-12T22:41:45.391Z,18.00
2017-07-12T22:46:32.775Z,17.40
2017-07-12T22:51:19.417Z,17.30
2017-07-12T22:56:06.443Z,17.20
2017-07-12T23:00:53.049Z,17.20
2017-07-12T23:05:39.674Z,17.00
2017-07-12T23:10:26.377Z,16.80
2017-07-12T23:15:13.041Z,16.80
2017-07-12T23:20:00.124Z,16.80
2017-07-12T23:24:46.844Z,16.70
2017-07-12T23:29:33.493Z,16.60
2017-07-12T23:34:20.099Z,16.60
2017-07-12T23:39:06.738Z,16.70
2017-07-12T23:43:53.652Z,16.60
2017-07-12T23:48:40.251Z,16.60
2017-07-12T23:53:26.903Z,16.60
2017-07-12T23:58:13.528Z,16.60
